createdAt,value
2018-05-18T00:01:18.102Z,30.17
2018-05-18T00:03:45.701Z,31.77
2018-05-18T00:06:13.957Z,27.77
2018-05-18T00:08:41.563Z,34.87
2018-05-18T00:11:09.837Z,25.07
2018-05-18T00:13:37.370Z,31.37
2018-05-18T00:16:05.008Z,32.07
2018-05-18T00:18:32.521Z,34.33
2018-05-18T00:21:00.179Z,30.23
2018-05-18T00:23:27.720Z,32.87
2018-05-18T00:25:55.287Z,40.60
2018-05-18T00:28:22.934Z,21.87
2018-05-18T00:30:52.007Z,24.13
2018-05-18T00:33:19.528Z,26.57
2018-05-18T00:35:47.880Z,29.97
2018-05-18T00:38:15.542Z,26.50
2018-05-18T00:40:43.166Z,33.67
2018-05-18T00:43:11.444Z,26.43
2018-05-18T00:45:39.119Z,28.13
2018-05-18T00:48:06.757Z,43.30
2018-05-18T00:50:34.302Z,26.37
2018-05-18T00:53:01.911Z,38.87
2018-05-18T00:55:40.390Z,27.23
2018-05-18T00:58:07.884Z,22.33
2018-05-18T01:00:35.425Z,29.53
2018-05-18T01:03:02.971Z,31.57
2018-05-18T01:05:30.461Z,27.50
2018-05-18T01:07:58.748Z,27.90
2018-05-18T01:10:27.015Z,31.47
2018-05-18T01:12:54.537Z,41.83
2018-05-18T01:15:22.133Z,25.30
2018-05-18T01:17:49.658Z,30.20
2018-05-18T01:20:17.153Z,29.70
2018-05-18T01:22:44.667Z,38.63
2018-05-18T01:25:12.161Z,32.70
2018-05-18T01:27:40.541Z,25.60
2018-05-18T01:30:09.471Z,25.50
2018-05-18T01:32:37.039Z,31.03
2018-05-18T01:35:04.597Z,33.33
2018-05-18T01:37:32.977Z,26.33
2018-05-18T01:40:01.280Z,32.13
2018-05-18T01:42:29.561Z,24.13
2018-05-18T01:44:57.865Z,43.87
2018-05-18T01:47:25.515Z,34.10
2018-05-18T01:49:53.845Z,21.43
2018-05-18T01:52:21.395Z,29.43
2018-05-18T01:54:49.130Z,32.67
2018-05-18T01:57:16.674Z,30.23
2018-05-18T01:59:44.190Z,32.97
2018-05-18T02:02:12.454Z,30.50
2018-05-18T02:04:39.992Z,40.13
2018-05-18T02:07:07.505Z,28.27
2018-05-18T02:09:35.058Z,28.33
2018-05-18T02:12:02.567Z,32.00
2018-05-18T02:14:30.930Z,27.33
2018-05-18T02:16:58.445Z,28.80
2018-05-18T02:19:26.141Z,20.23
2018-05-18T02:21:53.799Z,22.40
2018-05-18T02:24:21.354Z,30.60
2018-05-18T02:26:49.641Z,32.60
2018-05-18T02:29:17.920Z,22.73
2018-05-18T02:31:46.924Z,24.20
2018-05-18T02:34:15.191Z,31.53
2018-05-18T02:36:42.921Z,24.00
2018-05-18T02:39:10.686Z,19.93
2018-05-18T02:41:38.333Z,28.27
2018-05-18T02:44:05.841Z,20.80
2018-05-18T02:46:33.441Z,28.13
2018-05-18T02:49:00.988Z,28.73
2018-05-18T02:51:28.496Z,26.50
2018-05-18T02:53:56.839Z,26.87
2018-05-18T02:56:24.451Z,31.73
2018-05-18T02:58:52.063Z,25.93
2018-05-18T03:01:20.332Z,30.53
2018-05-18T03:03:48.649Z,29.63
2018-05-18T03:06:16.908Z,32.47
2018-05-18T03:08:45.211Z,25.73
2018-05-18T03:11:13.480Z,22.27
2018-05-18T03:13:40.997Z,25.37
2018-05-18T03:16:08.531Z,16.57
2018-05-18T03:18:36.119Z,31.83
2018-05-18T03:21:04.486Z,28.07
2018-05-18T03:23:31.957Z,37.93
2018-05-18T03:25:59.575Z,26.43
2018-05-18T03:28:27.122Z,26.80
2018-05-18T03:30:54.823Z,20.83
2018-05-18T03:33:22.337Z,31.83
2018-05-18T03:35:49.957Z,30.10
2018-05-18T03:38:17.448Z,22.93
2018-05-18T03:40:44.944Z,20.50
2018-05-18T03:43:12.457Z,31.80
2018-05-18T03:45:40.719Z,22.37
2018-05-18T03:48:08.234Z,23.43
2018-05-18T03:50:35.777Z,28.17
2018-05-18T03:53:04.074Z,21.23
2018-05-18T03:55:32.335Z,32.70
2018-05-18T03:58:00.020Z,24.23
2018-05-18T04:00:28.282Z,21.10
2018-05-18T04:03:22.625Z,18.20
2018-05-18T04:06:02.889Z,23.93
2018-05-18T04:08:53.527Z,18.13
2018-05-18T04:11:21.454Z,31.90
2018-05-18T04:13:49.756Z,20.03
2018-05-18T04:16:17.259Z,22.00
2018-05-18T04:18:44.806Z,20.07
2018-05-18T04:21:12.363Z,17.90
2018-05-18T04:23:39.870Z,19.90
2018-05-18T04:26:07.405Z,20.27
2018-05-18T04:28:34.990Z,26.23
2018-05-18T04:31:03.293Z,20.97
2018-05-18T04:33:30.852Z,20.10
2018-05-18T04:35:59.298Z,23.53
2018-05-18T04:38:26.834Z,20.37
2018-05-18T04:40:54.411Z,20.13
2018-05-18T04:43:22.072Z,22.37
2018-05-18T04:45:49.661Z,20.60
2018-05-18T04:48:17.183Z,23.87
2018-05-18T04:50:44.795Z,26.33
2018-05-18T04:53:12.458Z,23.83
2018-05-18T04:55:40.780Z,18.60
2018-05-18T04:58:08.282Z,21.90
2018-05-18T05:00:35.989Z,20.23
2018-05-18T05:03:04.934Z,19.67
2018-05-18T05:05:32.678Z,19.77
2018-05-18T05:08:00.228Z,23.90
2018-05-18T05:10:27.796Z,18.10
2018-05-18T05:12:55.330Z,20.80
2018-05-18T05:15:22.840Z,17.53
2018-05-18T05:17:51.236Z,21.23
2018-05-18T05:20:18.680Z,19.47
2018-05-18T05:22:46.218Z,22.80
2018-05-18T05:25:13.731Z,19.00
2018-05-18T05:27:41.320Z,16.87
2018-05-18T05:30:09.611Z,24.40
2018-05-18T05:32:39.299Z,27.63
2018-05-18T05:35:07.617Z,27.93
2018-05-18T05:37:35.893Z,18.40
2018-05-18T05:40:03.443Z,22.43
2018-05-18T05:42:30.945Z,15.37
2018-05-18T05:44:59.253Z,24.20
2018-05-18T05:47:26.840Z,23.10
2018-05-18T05:49:54.389Z,25.73
2018-05-18T05:52:22.663Z,21.03
2018-05-18T05:54:50.281Z,19.20
2018-05-18T05:57:17.833Z,23.87
2018-05-18T05:59:45.331Z,25.57
2018-05-18T06:02:12.872Z,27.70
2018-05-18T06:04:41.032Z,27.70
2018-05-18T06:07:08.676Z,17.70
2018-05-18T06:09:36.990Z,22.27
2018-05-18T06:12:04.614Z,27.90
2018-05-18T06:14:32.951Z,29.27
2018-05-18T06:17:01.352Z,26.93
2018-05-18T06:19:29.822Z,30.77
2018-05-18T06:21:58.159Z,24.43
2018-05-18T06:24:25.783Z,19.90
2018-05-18T06:26:53.286Z,25.93
2018-05-18T06:29:20.897Z,29.90
2018-05-18T06:31:48.489Z,20.97
2018-05-18T06:34:16.029Z,21.90
2018-05-18T06:36:43.557Z,28.60
2018-05-18T06:39:11.030Z,25.53
2018-05-18T06:41:39.356Z,28.93
2018-05-18T06:44:06.863Z,27.60
2018-05-18T06:46:34.391Z,22.23
2018-05-18T06:49:01.949Z,21.93
2018-05-18T06:51:30.222Z,22.80
2018-05-18T06:53:58.606Z,32.53
2018-05-18T06:56:26.896Z,23.57
2018-05-18T06:58:55.351Z,28.73
2018-05-18T07:01:22.874Z,24.23
2018-05-18T07:03:51.228Z,25.37
2018-05-18T07:06:18.930Z,32.20
2018-05-18T07:08:47.357Z,25.97
2018-05-18T07:11:14.902Z,22.93
2018-05-18T07:13:42.421Z,21.13
2018-05-18T07:16:10.234Z,23.23
2018-05-18T07:18:38.774Z,25.23
2018-05-18T07:21:06.303Z,23.97
2018-05-18T07:23:34.583Z,16.53
2018-05-18T07:26:02.184Z,23.20
2018-05-18T07:28:29.736Z,18.60
2018-05-18T07:30:58.020Z,23.50
2018-05-18T07:33:26.415Z,25.30
2018-05-18T07:35:54.714Z,27.50
2018-05-18T07:38:23.107Z,33.37
2018-05-18T07:40:51.391Z,22.43
2018-05-18T07:43:19.710Z,28.20
2018-05-18T07:45:47.205Z,20.60
2018-05-18T07:48:14.840Z,24.03
2018-05-18T07:50:42.385Z,29.97
2018-05-18T07:53:10.908Z,21.27
2018-05-18T07:55:38.598Z,22.13
2018-05-18T07:58:06.088Z,26.03
2018-05-18T08:00:33.727Z,19.00
2018-05-18T08:03:01.258Z,23.93
2018-05-18T08:05:28.801Z,18.93
2018-05-18T08:07:56.368Z,23.63
2018-05-18T08:10:23.978Z,19.53
2018-05-18T08:12:52.257Z,23.47
2018-05-18T08:15:19.867Z,20.50
2018-05-18T08:17:47.426Z,18.67
2018-05-18T08:20:15.708Z,18.60
2018-05-18T08:22:43.967Z,16.73
2018-05-18T08:25:11.590Z,19.50
2018-05-18T08:27:39.205Z,19.77
2018-05-18T08:30:06.691Z,16.23
2018-05-18T08:32:35.733Z,15.30
2018-05-18T08:35:03.345Z,15.50
2018-05-18T08:37:30.853Z,15.70
2018-05-18T08:39:59.277Z,16.83
2018-05-18T08:42:27.577Z,17.10
2018-05-18T08:44:55.111Z,19.10
2018-05-18T08:47:22.790Z,19.13
2018-05-18T08:49:50.304Z,14.13
2018-05-18T08:52:18.601Z,18.40
2018-05-18T08:54:46.113Z,17.33
2018-05-18T08:57:13.623Z,21.63
2018-05-18T08:59:42.021Z,13.90
2018-05-18T09:02:10.271Z,18.07
2018-05-18T09:04:37.826Z,19.67
2018-05-18T09:07:05.467Z,18.27
2018-05-18T09:09:33.013Z,18.80
2018-05-18T09:12:01.392Z,17.50
2018-05-18T09:14:29.696Z,15.67
2018-05-18T09:16:57.959Z,20.47
2018-05-18T09:19:25.625Z,15.20
2018-05-18T09:21:53.229Z,17.63
2018-05-18T09:24:21.124Z,16.70
2018-05-18T09:26:48.962Z,20.53
2018-05-18T09:29:16.549Z,16.57
2018-05-18T09:31:44.156Z,19.00
2018-05-18T09:34:11.661Z,19.67
2018-05-18T09:36:39.274Z,21.33
2018-05-18T09:39:07.644Z,12.60
2018-05-18T09:41:35.152Z,16.53
2018-05-18T09:44:02.703Z,19.27
2018-05-18T09:46:31.000Z,19.13
2018-05-18T09:48:58.582Z,14.53
2018-05-18T09:51:26.080Z,19.03
2018-05-18T09:53:53.694Z,16.70
2018-05-18T09:56:21.283Z,14.40
2018-05-18T09:58:49.549Z,20.13
2018-05-18T10:01:17.091Z,13.10
2018-05-18T10:03:44.587Z,19.53
2018-05-18T10:06:12.103Z,15.70
2018-05-18T10:08:40.375Z,14.17
2018-05-18T10:11:07.920Z,13.77
2018-05-18T10:13:35.545Z,14.63
2018-05-18T10:16:03.898Z,19.57
2018-05-18T10:18:31.438Z,28.63
2018-05-18T10:20:59.657Z,14.30
2018-05-18T10:23:27.264Z,14.17
2018-05-18T10:25:55.535Z,13.50
2018-05-18T10:28:27.730Z,14.40
2018-05-18T10:30:55.288Z,15.80
2018-05-18T10:33:22.926Z,14.20
2018-05-18T10:35:50.471Z,22.60
2018-05-18T10:38:18.034Z,12.83
2018-05-18T10:40:46.385Z,17.73
2018-05-18T10:43:13.931Z,17.87
2018-05-18T10:45:41.463Z,16.40
2018-05-18T10:48:08.981Z,14.20
2018-05-18T10:50:36.497Z,14.20
2018-05-18T10:53:04.035Z,14.47
2018-05-18T10:55:31.589Z,15.73
2018-05-18T10:57:59.148Z,14.60
2018-05-18T11:00:26.655Z,12.80
2018-05-18T11:02:54.225Z,16.13
2018-05-18T11:05:21.860Z,11.20
2018-05-18T11:07:49.487Z,12.77
2018-05-18T11:10:17.012Z,14.73
2018-05-18T11:12:44.608Z,13.17
2018-05-18T11:15:12.185Z,14.77
2018-05-18T11:17:39.725Z,13.03
2018-05-18T11:20:07.339Z,13.23
2018-05-18T11:22:35.070Z,12.53
2018-05-18T11:25:02.605Z,18.13
2018-05-18T11:27:30.222Z,11.73
2018-05-18T11:29:57.797Z,15.67
2018-05-18T11:32:25.304Z,13.50
2018-05-18T11:34:52.841Z,11.17
2018-05-18T11:37:20.671Z,11.70
2018-05-18T11:39:48.160Z,15.80
2018-05-18T11:42:16.459Z,8.63
2018-05-18T11:44:44.140Z,10.40
2018-05-18T11:47:12.464Z,10.70
2018-05-18T11:49:39.948Z,13.80
2018-05-18T11:52:07.509Z,8.77
2018-05-18T11:54:35.056Z,20.50
2018-05-18T11:57:02.715Z,12.27
2018-05-18T11:59:30.272Z,15.23
2018-05-18T12:01:58.558Z,14.90
2018-05-18T12:04:26.935Z,21.03
2018-05-18T12:06:54.510Z,16.90
2018-05-18T12:09:22.833Z,12.30
2018-05-18T12:11:50.396Z,11.90
2018-05-18T12:14:17.943Z,21.00
2018-05-18T12:16:46.272Z,19.37
2018-05-18T12:19:13.850Z,13.00
2018-05-18T12:21:41.408Z,18.87
2018-05-18T12:24:08.981Z,12.67
2018-05-18T12:26:36.591Z,15.50
2018-05-18T12:29:04.271Z,14.30
2018-05-18T12:31:31.893Z,16.77
2018-05-18T12:33:59.466Z,13.07
2018-05-18T12:36:27.031Z,11.07
2018-05-18T12:38:54.591Z,11.50
2018-05-18T12:41:22.886Z,12.30
2018-05-18T12:43:51.308Z,15.43
2018-05-18T12:46:18.858Z,17.80
2018-05-18T12:48:46.430Z,14.13
2018-05-18T12:51:13.952Z,15.60
2018-05-18T12:53:41.585Z,16.67
2018-05-18T12:56:09.143Z,12.90
2018-05-18T12:58:36.666Z,13.37
2018-05-18T13:01:04.311Z,12.93
2018-05-18T13:03:31.807Z,17.27
2018-05-18T13:05:59.378Z,14.80
2018-05-18T13:08:26.880Z,14.50
2018-05-18T13:10:55.152Z,14.10
2018-05-18T13:13:22.668Z,18.83
2018-05-18T13:15:50.187Z,16.73
2018-05-18T13:18:17.883Z,17.00
2018-05-18T13:20:46.166Z,21.30
2018-05-18T13:23:13.688Z,17.67
2018-05-18T13:25:41.246Z,13.73
2018-05-18T13:28:08.939Z,17.73
2018-05-18T13:30:37.426Z,16.87
2018-05-18T13:33:05.319Z,22.03
2018-05-18T13:35:33.102Z,15.43
2018-05-18T13:38:00.607Z,19.20
2018-05-18T13:40:28.914Z,17.50
2018-05-18T13:42:56.409Z,16.43
2018-05-18T13:45:24.073Z,15.10
2018-05-18T13:47:51.628Z,14.57
2018-05-18T13:50:19.188Z,17.70
2018-05-18T13:52:47.479Z,14.63
2018-05-18T13:55:15.172Z,12.50
2018-05-18T13:57:42.784Z,15.33
2018-05-18T14:00:10.395Z,13.43
2018-05-18T14:02:38.676Z,17.77
2018-05-18T14:05:06.993Z,16.33
2018-05-18T14:07:34.535Z,14.00
2018-05-18T14:10:02.802Z,16.50
2018-05-18T14:12:30.402Z,15.97
2018-05-18T14:14:58.704Z,15.40
2018-05-18T14:17:26.270Z,21.40
2018-05-18T14:19:54.637Z,22.80
2018-05-18T14:22:22.164Z,20.10
2018-05-18T14:24:49.697Z,10.53
2018-05-18T14:27:17.992Z,18.33
2018-05-18T14:29:45.650Z,21.00
2018-05-18T14:32:13.966Z,15.83
2018-05-18T14:34:41.543Z,18.43
2018-05-18T14:37:09.068Z,17.77
2018-05-18T14:39:36.766Z,16.20
2018-05-18T14:42:05.061Z,15.70
2018-05-18T14:44:32.579Z,15.70
2018-05-18T14:47:00.122Z,16.23
2018-05-18T14:49:27.783Z,22.33
2018-05-18T14:51:55.372Z,19.47
2018-05-18T14:54:22.913Z,16.97
2018-05-18T14:56:51.210Z,13.90
2018-05-18T14:59:18.729Z,17.60
2018-05-18T15:01:46.358Z,15.13
2018-05-18T15:04:13.857Z,16.43
2018-05-18T15:06:41.599Z,17.03
2018-05-18T15:09:09.180Z,21.57
2018-05-18T15:11:36.841Z,16.73
2018-05-18T15:14:05.136Z,16.77
2018-05-18T15:16:32.677Z,19.90
2018-05-18T15:19:00.177Z,21.00
2018-05-18T15:21:27.682Z,17.43
2018-05-18T15:23:55.253Z,19.00
2018-05-18T15:26:22.749Z,15.67
2018-05-18T15:28:50.378Z,18.60
2018-05-18T15:31:17.926Z,17.57
2018-05-18T15:33:46.330Z,20.30
2018-05-18T15:36:13.899Z,19.27
2018-05-18T15:38:42.235Z,25.77
2018-05-18T15:41:09.773Z,17.73
2018-05-18T15:43:38.200Z,19.20
2018-05-18T15:46:06.614Z,18.03
2018-05-18T15:48:34.975Z,21.53
2018-05-18T15:51:03.172Z,24.30
2018-05-18T15:53:30.695Z,21.70
2018-05-18T15:55:58.281Z,19.67
2018-05-18T15:58:26.003Z,20.10
2018-05-18T16:00:53.621Z,25.07
2018-05-18T16:03:21.937Z,19.90
2018-05-18T16:05:51.053Z,25.13
2018-05-18T16:08:18.664Z,17.40
2018-05-18T16:10:46.187Z,18.23
2018-05-18T16:13:13.688Z,24.30
2018-05-18T16:15:41.227Z,23.00
2018-05-18T16:18:08.794Z,30.23
2018-05-18T16:20:36.432Z,22.80
2018-05-18T16:23:04.405Z,18.87
2018-05-18T16:25:31.897Z,27.13
2018-05-18T16:28:00.311Z,27.70
2018-05-18T16:30:27.834Z,34.30
2018-05-18T16:32:55.379Z,25.40
2018-05-18T16:35:23.686Z,21.17
2018-05-18T16:37:51.241Z,26.40
2018-05-18T16:40:18.757Z,24.70
2018-05-18T16:42:47.046Z,24.53
2018-05-18T16:45:14.573Z,18.60
2018-05-18T16:47:42.158Z,22.97
2018-05-18T16:50:09.893Z,22.17
2018-05-18T16:52:38.949Z,23.70
2018-05-18T16:55:07.267Z,22.27
2018-05-18T16:57:34.813Z,15.50
2018-05-18T17:00:03.142Z,25.83
2018-05-18T17:02:30.689Z,17.70
2018-05-18T17:04:58.273Z,18.23
2018-05-18T17:07:25.807Z,24.53
2018-05-18T17:09:54.372Z,19.37
2018-05-18T17:12:22.105Z,18.07
2018-05-18T17:14:49.570Z,26.17
2018-05-18T17:17:17.296Z,17.70
2018-05-18T17:19:44.885Z,20.67
2018-05-18T17:22:12.368Z,18.73
2018-05-18T17:24:39.867Z,22.27
2018-05-18T17:27:07.477Z,23.07
2018-05-18T17:29:34.957Z,18.20
2018-05-18T17:32:02.563Z,19.17
2018-05-18T17:34:30.971Z,24.77
2018-05-18T17:36:58.495Z,19.77
2018-05-18T17:39:26.044Z,17.10
2018-05-18T17:41:53.546Z,24.20
2018-05-18T17:44:21.852Z,31.10
2018-05-18T17:46:50.270Z,21.60
2018-05-18T17:49:17.805Z,21.57
2018-05-18T17:51:46.063Z,20.83
2018-05-18T17:54:13.596Z,14.60
2018-05-18T17:56:41.096Z,21.97
2018-05-18T17:59:08.657Z,22.63
2018-05-18T18:01:36.201Z,16.30
2018-05-18T18:04:03.769Z,18.63
2018-05-18T18:06:31.447Z,18.23
2018-05-18T18:08:58.995Z,19.57
2018-05-18T18:11:27.320Z,18.43
2018-05-18T18:13:54.893Z,17.57
2018-05-18T18:16:22.550Z,20.80
2018-05-18T18:18:50.888Z,12.53
2018-05-18T18:21:18.426Z,19.40
2018-05-18T18:23:45.984Z,20.87
2018-05-18T18:26:13.569Z,24.27
2018-05-18T18:28:41.206Z,17.73
2018-05-18T18:31:08.672Z,17.03
2018-05-18T18:33:36.992Z,18.83
2018-05-18T18:36:04.491Z,15.40
2018-05-18T18:38:32.020Z,17.70
2018-05-18T18:41:00.293Z,16.13
2018-05-18T18:43:27.970Z,20.27
2018-05-18T18:45:55.514Z,17.43
2018-05-18T18:48:23.078Z,17.97
2018-05-18T18:50:50.621Z,17.27
2018-05-18T18:53:18.138Z,19.77
2018-05-18T18:55:45.686Z,14.17
2018-05-18T18:58:13.217Z,18.37
2018-05-18T19:00:40.797Z,18.83
2018-05-18T19:03:09.181Z,18.50
2018-05-18T19:05:37.495Z,21.47
2018-05-18T19:08:05.081Z,20.57
2018-05-18T19:10:32.627Z,17.40
2018-05-18T19:13:00.930Z,19.20
2018-05-18T19:15:28.461Z,20.00
2018-05-18T19:17:56.017Z,19.03
2018-05-18T19:20:23.557Z,15.37
2018-05-18T19:22:51.427Z,22.03
2018-05-18T19:25:19.831Z,26.87
2018-05-18T19:27:47.650Z,22.93
2018-05-18T19:30:15.229Z,24.47
2018-05-18T19:32:42.744Z,14.20
2018-05-18T19:35:10.272Z,17.07
2018-05-18T19:37:37.800Z,13.83
2018-05-18T19:40:05.438Z,25.40
2018-05-18T19:42:32.969Z,22.97
2018-05-18T19:45:00.518Z,18.90
2018-05-18T19:47:28.053Z,15.37
2018-05-18T19:49:55.618Z,26.03
2018-05-18T19:52:23.109Z,18.67
2018-05-18T19:54:50.629Z,22.10
2018-05-18T19:57:19.676Z,22.33
2018-05-18T19:59:47.216Z,13.37
2018-05-18T20:02:14.824Z,17.80
2018-05-18T20:04:42.351Z,19.00
2018-05-18T20:07:09.922Z,25.97
2018-05-18T20:09:37.538Z,20.20
2018-05-18T20:12:05.064Z,22.33
2018-05-18T20:14:32.666Z,20.63
2018-05-18T20:17:00.947Z,20.50
2018-05-18T20:19:29.277Z,21.70
2018-05-18T20:21:56.813Z,23.00
2018-05-18T20:24:25.125Z,18.60
2018-05-18T20:26:52.685Z,23.60
2018-05-18T20:29:20.253Z,32.43
2018-05-18T20:31:47.918Z,24.00
2018-05-18T20:34:16.220Z,18.10
2018-05-18T20:36:43.821Z,28.70
2018-05-18T20:39:11.428Z,26.50
2018-05-18T20:41:39.790Z,24.00
2018-05-18T20:44:07.354Z,29.43
2018-05-18T20:46:34.910Z,21.90
2018-05-18T20:49:02.484Z,29.20
2018-05-18T20:51:30.032Z,29.30
2018-05-18T20:53:58.305Z,35.10
2018-05-18T20:56:26.617Z,20.60
2018-05-18T20:58:54.215Z,32.33
2018-05-18T21:01:21.733Z,32.10
2018-05-18T21:03:50.155Z,31.50
2018-05-18T21:06:17.724Z,27.10
2018-05-18T21:08:45.614Z,33.57
2018-05-18T21:11:13.219Z,31.73
2018-05-18T21:13:40.803Z,38.63
2018-05-18T21:16:08.341Z,28.77
2018-05-18T21:18:36.009Z,30.20
2018-05-18T21:21:03.671Z,32.13
2018-05-18T21:23:31.241Z,50.10
2018-05-18T21:25:58.804Z,36.93
2018-05-18T21:28:26.355Z,27.20
2018-05-18T21:30:54.715Z,41.73
2018-05-18T21:33:22.381Z,36.40
2018-05-18T21:35:50.051Z,37.07
2018-05-18T21:38:17.637Z,40.93
2018-05-18T21:40:45.194Z,38.23
2018-05-18T21:43:12.790Z,31.87
2018-05-18T21:45:40.364Z,34.50
2018-05-18T21:48:07.995Z,36.53
2018-05-18T21:50:35.524Z,43.87
2018-05-18T21:53:03.845Z,41.97
2018-05-18T21:55:31.364Z,41.73
2018-05-18T21:57:59.024Z,31.93
2018-05-18T22:00:27.167Z,35.97
2018-05-18T22:02:54.751Z,33.80
2018-05-18T22:05:22.415Z,36.97
2018-05-18T22:07:49.932Z,29.27
2018-05-18T22:10:17.549Z,33.33
2018-05-18T22:12:45.611Z,33.50
2018-05-18T22:15:14.867Z,35.00
2018-05-18T22:17:42.417Z,38.43
2018-05-18T22:20:09.977Z,37.73
2018-05-18T22:22:38.405Z,34.27
2018-05-18T22:25:05.913Z,37.67
2018-05-18T22:27:34.243Z,36.80
2018-05-18T22:30:01.765Z,39.77
2018-05-18T22:32:29.296Z,33.43
2018-05-18T22:34:56.830Z,32.23
2018-05-18T22:37:24.613Z,34.90
2018-05-18T22:39:53.011Z,43.37
2018-05-18T22:42:20.544Z,27.30
2018-05-18T22:44:48.132Z,41.00
2018-05-18T22:47:16.442Z,37.37
2018-05-18T22:49:45.538Z,42.20
2018-05-18T22:52:13.833Z,31.40
2018-05-18T22:54:42.113Z,34.90
2018-05-18T22:57:09.643Z,40.83
2018-05-18T22:59:37.175Z,30.57
2018-05-18T23:02:04.712Z,35.73
2018-05-18T23:04:32.400Z,37.40
2018-05-18T23:06:59.960Z,38.00
2018-05-18T23:09:27.492Z,38.97
2018-05-18T23:11:55.029Z,38.50
2018-05-18T23:14:22.590Z,39.17
2018-05-18T23:16:50.259Z,38.50
2018-05-18T23:19:18.571Z,43.53
2018-05-18T23:21:46.134Z,38.43
2018-05-18T23:24:14.539Z,40.03
2018-05-18T23:26:42.127Z,40.33
2018-05-18T23:29:09.731Z,43.83
2018-05-18T23:31:37.315Z,42.43
2018-05-18T23:34:05.735Z,42.87
2018-05-18T23:36:33.248Z,41.40
2018-05-18T23:39:00.773Z,41.93
2018-05-18T23:41:29.080Z,37.57
2018-05-18T23:43:56.694Z,37.90
2018-05-18T23:46:24.227Z,42.03
2018-05-18T23:48:51.800Z,42.80
2018-05-18T23:51:19.354Z,39.83
2018-05-18T23:53:47.731Z,40.73
2018-05-18T23:56:16.151Z,50.93
2018-05-18T23:58:43.670Z,42.03
